sensor_id;sensor_type;location;lat;lon;timestamp;temperature;humidity
23237;DHT22;11787;52.018;8.570;2022-08-01T00:00:39;19.60;99.90
23237;DHT22;11787;52.018;8.570;2022-08-01T00:03:05;19.50;99.90
23237;DHT22;11787;52.018;8.570;2022-08-01T00:05:31;19.60;99.90
23237;DHT22;11787;52.018;8.570;2022-08-01T00:07:56;19.50;99.90
23237;DHT22;11787;52.018;8.570;2022-08-01T00:10:22;19.60;99.90
23237;DHT22;11787;52.018;8.570;2022-08-01T00:12:48;19.50;99.90
23237;DHT22;11787;52.018;8.570;2022-08-01T00:15:16;19.50;99.90
23237;DHT22;11787;52.018;8.570;2022-08-01T00:17:42;19.50;99.90
23237;DHT22;11787;52.018;8.570;2022-08-01T00:20:10;19.50;99.90
23237;DHT22;11787;52.018;8.570;2022-08-01T00:22:36;19.50;99.90
23237;DHT22;11787;52.018;8.570;2022-08-01T00:25:03;19.50;99.90
23237;DHT22;11787;52.018;8.570;2022-08-01T00:27:29;19.50;99.90
23237;DHT22;11787;52.018;8.570;2022-08-01T00:29:55;19.50;99.90
23237;DHT22;11787;52.018;8.570;2022-08-01T00:32:20;19.50;99.90
23237;DHT22;11787;52.018;8.570;2022-08-01T00:34:46;19.50;99.90
23237;DHT22;11787;52.018;8.570;2022-08-01T00:37:11;19.50;99.90
23237;DHT22;11787;52.018;8.570;2022-08-01T00:39:37;19.50;99.90
23237;DHT22;11787;52.018;8.570;2022-08-01T00:42:08;19.50;99.90
23237;DHT22;11787;52.018;8.570;2022-08-01T00:44:34;19.60;99.90
23237;DHT22;11787;52.018;8.570;2022-08-01T00:47:00;19.60;99.90
23237;DHT22;11787;52.018;8.570;2022-08-01T00:49:27;19.50;99.90
23237;DHT22;11787;52.018;8.570;2022-08-01T00:51:53;19.50;99.90
23237;DHT22;11787;52.018;8.570;2022-08-01T00:54:19;19.50;99.90
23237;DHT22;11787;52.018;8.570;2022-08-01T00:56:44;19.50;99.90
23237;DHT22;11787;52.018;8.570;2022-08-01T00:59:12;19.40;99.90
23237;DHT22;11787;52.018;8.570;2022-08-01T01:01:39;19.40;99.90
23237;DHT22;11787;52.018;8.570;2022-08-01T01:04:05;19.40;99.90
23237;DHT22;11787;52.018;8.570;2022-08-01T01:07:24;19.40;99.90
23237;DHT22;11787;52.018;8.570;2022-08-01T01:15:14;19.50;99.90
23237;DHT22;11787;52.018;8.570;2022-08-01T01:18:04;19.40;99.90
23237;DHT22;11787;52.018;8.570;2022-08-01T01:20:37;19.40;99.90
23237;DHT22;11787;52.018;8.570;2022-08-01T01:31:28;19.20;99.90
23237;DHT22;11787;52.018;8.570;2022-08-01T01:33:55;19.20;99.90
23237;DHT22;11787;52.018;8.570;2022-08-01T01:36:24;19.20;99.90
23237;DHT22;11787;52.018;8.570;2022-08-01T01:38:52;19.20;99.90
23237;DHT22;11787;52.018;8.570;2022-08-01T01:41:19;19.30;99.90
23237;DHT22;11787;52.018;8.570;2022-08-01T01:43:46;19.20;99.90
23237;DHT22;11787;52.018;8.570;2022-08-01T01:46:17;19.20;99.90
23237;DHT22;11787;52.018;8.570;2022-08-01T01:48:44;19.20;99.90
23237;DHT22;11787;52.018;8.570;2022-08-01T01:51:11;19.20;99.90
23237;DHT22;11787;52.018;8.570;2022-08-01T01:53:38;19.20;99.90
23237;DHT22;11787;52.018;8.570;2022-08-01T01:56:05;19.20;99.90
23237;DHT22;11787;52.018;8.570;2022-08-01T01:58:33;19.20;99.90
23237;DHT22;11787;52.018;8.570;2022-08-01T02:01:01;19.20;99.90
23237;DHT22;11787;52.018;8.570;2022-08-01T02:03:28;19.20;99.90
23237;DHT22;11787;52.018;8.570;2022-08-01T02:05:55;19.20;99.90
23237;DHT22;11787;52.018;8.570;2022-08-01T02:08:23;19.20;99.90
23237;DHT22;11787;52.018;8.570;2022-08-01T02:10:51;19.20;99.90
23237;DHT22;11787;52.018;8.570;2022-08-01T02:13:38;19.20;99.90
23237;DHT22;11787;52.018;8.570;2022-08-01T02:16:05;19.10;99.90
23237;DHT22;11787;52.018;8.570;2022-08-01T02:18:32;19.10;99.90
23237;DHT22;11787;52.018;8.570;2022-08-01T02:20:59;19.10;99.90
23237;DHT22;11787;52.018;8.570;2022-08-01T02:23:28;19.10;99.90
23237;DHT22;11787;52.018;8.570;2022-08-01T02:25:58;19.10;99.90
23237;DHT22;11787;52.018;8.570;2022-08-01T02:28:30;19.00;99.90
23237;DHT22;11787;52.018;8.570;2022-08-01T02:31:03;19.00;99.90
23237;DHT22;11787;52.018;8.570;2022-08-01T02:33:36;19.00;99.90
23237;DHT22;11787;52.018;8.570;2022-08-01T02:36:03;19.00;99.90
23237;DHT22;11787;52.018;8.570;2022-08-01T02:38:32;19.00;99.90
23237;DHT22;11787;52.018;8.570;2022-08-01T02:41:05;18.90;99.90
23237;DHT22;11787;52.018;8.570;2022-08-01T02:43:34;19.00;99.90
23237;DHT22;11787;52.018;8.570;2022-08-01T02:46:02;18.90;99.90
23237;DHT22;11787;52.018;8.570;2022-08-01T02:48:30;19.00;99.90
23237;DHT22;11787;52.018;8.570;2022-08-01T02:50:59;19.00;99.90
23237;DHT22;11787;52.018;8.570;2022-08-01T02:53:27;19.00;99.90
23237;DHT22;11787;52.018;8.570;2022-08-01T02:55:57;19.00;99.90
23237;DHT22;11787;52.018;8.570;2022-08-01T02:58:24;19.00;99.90
23237;DHT22;11787;52.018;8.570;2022-08-01T03:00:51;19.00;99.90
23237;DHT22;11787;52.018;8.570;2022-08-01T03:03:18;19.00;99.90
23237;DHT22;11787;52.018;8.570;2022-08-01T03:05:44;19.00;99.90
23237;DHT22;11787;52.018;8.570;2022-08-01T03:08:11;19.00;99.90
23237;DHT22;11787;52.018;8.570;2022-08-01T03:10:40;19.00;99.90
23237;DHT22;11787;52.018;8.570;2022-08-01T03:13:08;19.00;99.90
23237;DHT22;11787;52.018;8.570;2022-08-01T03:15:37;19.00;99.90
23237;DHT22;11787;52.018;8.570;2022-08-01T03:18:06;19.00;99.90
23237;DHT22;11787;52.018;8.570;2022-08-01T03:20:33;19.10;99.90
23237;DHT22;11787;52.018;8.570;2022-08-01T03:22:59;19.10;99.90
23237;DHT22;11787;52.018;8.570;2022-08-01T03:25:26;19.10;99.90
23237;DHT22;11787;52.018;8.570;2022-08-01T03:27:55;19.20;99.90
23237;DHT22;11787;52.018;8.570;2022-08-01T03:30:22;19.20;99.90
23237;DHT22;11787;52.018;8.570;2022-08-01T03:32:47;19.20;99.90
23237;DHT22;11787;52.018;8.570;2022-08-01T03:35:13;19.10;99.90
23237;DHT22;11787;52.018;8.570;2022-08-01T03:37:45;19.00;99.90
23237;DHT22;11787;52.018;8.570;2022-08-01T03:40:21;19.00;99.90
23237;DHT22;11787;52.018;8.570;2022-08-01T03:42:50;19.10;99.90
23237;DHT22;11787;52.018;8.570;2022-08-01T03:45:27;19.10;99.90
23237;DHT22;11787;52.018;8.570;2022-08-01T03:48:01;19.10;99.90
23237;DHT22;11787;52.018;8.570;2022-08-01T03:50:28;19.10;99.90
23237;DHT22;11787;52.018;8.570;2022-08-01T03:52:57;19.10;99.90
23237;DHT22;11787;52.018;8.570;2022-08-01T03:55:24;19.00;99.90
23237;DHT22;11787;52.018;8.570;2022-08-01T03:57:50;19.00;99.90
23237;DHT22;11787;52.018;8.570;2022-08-01T04:03:20;18.90;99.90
23237;DHT22;11787;52.018;8.570;2022-08-01T04:05:45;18.90;99.90
23237;DHT22;11787;52.018;8.570;2022-08-01T04:08:11;18.90;99.90
23237;DHT22;11787;52.018;8.570;2022-08-01T04:10:37;19.00;99.90
23237;DHT22;11787;52.018;8.570;2022-08-01T04:13:02;18.90;99.90
23237;DHT22;11787;52.018;8.570;2022-08-01T04:15:28;18.90;99.90
23237;DHT22;11787;52.018;8.570;2022-08-01T04:17:53;18.90;99.90
23237;DHT22;11787;52.018;8.570;2022-08-01T04:20:19;18.90;99.90
23237;DHT22;11787;52.018;8.570;2022-08-01T04:22:45;19.00;99.90
23237;DHT22;11787;52.018;8.570;2022-08-01T04:25:12;19.00;99.90
23237;DHT22;11787;52.018;8.570;2022-08-01T04:27:38;19.00;99.90
23237;DHT22;11787;52.018;8.570;2022-08-01T04:30:05;19.00;99.90
23237;DHT22;11787;52.018;8.570;2022-08-01T04:32:35;19.00;99.90
23237;DHT22;11787;52.018;8.570;2022-08-01T04:35:02;19.00;99.90
23237;DHT22;11787;52.018;8.570;2022-08-01T04:37:29;19.10;99.90
23237;DHT22;11787;52.018;8.570;2022-08-01T04:39:56;19.10;99.90
23237;DHT22;11787;52.018;8.570;2022-08-01T04:42:22;19.20;99.90
23237;DHT22;11787;52.018;8.570;2022-08-01T04:44:47;19.10;99.90
23237;DHT22;11787;52.018;8.570;2022-08-01T04:47:13;19.10;99.90
23237;DHT22;11787;52.018;8.570;2022-08-01T04:49:39;19.10;99.90
23237;DHT22;11787;52.018;8.570;2022-08-01T04:52:05;19.00;99.90
23237;DHT22;11787;52.018;8.570;2022-08-01T04:54:33;19.00;99.90
23237;DHT22;11787;52.018;8.570;2022-08-01T04:56:59;19.10;99.90
23237;DHT22;11787;52.018;8.570;2022-08-01T04:59:25;19.10;99.90
23237;DHT22;11787;52.018;8.570;2022-08-01T05:02:10;19.20;99.90
23237;DHT22;11787;52.018;8.570;2022-08-01T05:04:36;19.10;99.90
23237;DHT22;11787;52.018;8.570;2022-08-01T05:07:02;19.10;99.90
23237;DHT22;11787;52.018;8.570;2022-08-01T05:09:28;19.10;99.90
23237;DHT22;11787;52.018;8.570;2022-08-01T05:11:53;19.10;99.90
23237;DHT22;11787;52.018;8.570;2022-08-01T05:14:19;19.20;99.90
23237;DHT22;11787;52.018;8.570;2022-08-01T05:16:45;19.20;99.90
23237;DHT22;11787;52.018;8.570;2022-08-01T05:19:11;19.20;99.90
23237;DHT22;11787;52.018;8.570;2022-08-01T05:21:36;19.20;99.90
23237;DHT22;11787;52.018;8.570;2022-08-01T05:24:03;19.20;99.90
23237;DHT22;11787;52.018;8.570;2022-08-01T05:26:28;19.20;99.90
23237;DHT22;11787;52.018;8.570;2022-08-01T05:28:54;19.20;99.90
23237;DHT22;11787;52.018;8.570;2022-08-01T05:31:19;19.20;99.90
23237;DHT22;11787;52.018;8.570;2022-08-01T05:33:45;19.20;99.90
23237;DHT22;11787;52.018;8.570;2022-08-01T05:36:10;19.20;99.90
23237;DHT22;11787;52.018;8.570;2022-08-01T05:38:36;19.20;99.90
23237;DHT22;11787;52.018;8.570;2022-08-01T05:41:01;19.20;99.90
23237;DHT22;11787;52.018;8.570;2022-08-01T05:43:27;19.30;99.90
23237;DHT22;11787;52.018;8.570;2022-08-01T05:45:52;19.20;99.90
23237;DHT22;11787;52.018;8.570;2022-08-01T05:48:18;19.10;99.90
23237;DHT22;11787;52.018;8.570;2022-08-01T05:50:43;19.20;99.90
23237;DHT22;11787;52.018;8.570;2022-08-01T05:53:09;19.20;99.90
23237;DHT22;11787;52.018;8.570;2022-08-01T05:55:35;19.10;99.90
23237;DHT22;11787;52.018;8.570;2022-08-01T05:58:00;19.10;99.90
23237;DHT22;11787;52.018;8.570;2022-08-01T06:00:26;19.10;99.90
23237;DHT22;11787;52.018;8.570;2022-08-01T06:02:51;19.20;99.90
23237;DHT22;11787;52.018;8.570;2022-08-01T06:05:17;19.20;99.90
23237;DHT22;11787;52.018;8.570;2022-08-01T06:07:42;19.40;99.90
23237;DHT22;11787;52.018;8.570;2022-08-01T06:10:08;19.40;99.90
23237;DHT22;11787;52.018;8.570;2022-08-01T06:12:34;19.30;99.90
23237;DHT22;11787;52.018;8.570;2022-08-01T06:14:59;19.30;99.90
23237;DHT22;11787;52.018;8.570;2022-08-01T06:17:25;19.30;99.90
23237;DHT22;11787;52.018;8.570;2022-08-01T06:19:50;19.30;99.90
23237;DHT22;11787;52.018;8.570;2022-08-01T06:22:15;19.30;99.90
23237;DHT22;11787;52.018;8.570;2022-08-01T06:24:41;19.40;99.90
23237;DHT22;11787;52.018;8.570;2022-08-01T06:27:06;19.40;99.90
23237;DHT22;11787;52.018;8.570;2022-08-01T06:29:32;19.40;99.90
23237;DHT22;11787;52.018;8.570;2022-08-01T06:31:58;19.40;99.90
23237;DHT22;11787;52.018;8.570;2022-08-01T06:34:23;19.40;99.90
23237;DHT22;11787;52.018;8.570;2022-08-01T06:36:49;19.40;99.90
23237;DHT22;11787;52.018;8.570;2022-08-01T06:39:14;19.40;99.90
23237;DHT22;11787;52.018;8.570;2022-08-01T06:41:40;19.50;99.90
23237;DHT22;11787;52.018;8.570;2022-08-01T06:44:07;19.50;99.90
23237;DHT22;11787;52.018;8.570;2022-08-01T06:46:32;19.60;99.90
23237;DHT22;11787;52.018;8.570;2022-08-01T06:48:58;19.60;99.90
23237;DHT22;11787;52.018;8.570;2022-08-01T06:51:23;19.60;99.90
23237;DHT22;11787;52.018;8.570;2022-08-01T06:53:49;19.60;99.90
23237;DHT22;11787;52.018;8.570;2022-08-01T06:56:14;19.60;99.90
23237;DHT22;11787;52.018;8.570;2022-08-01T06:58:40;19.60;99.90
23237;DHT22;11787;52.018;8.570;2022-08-01T07:01:05;19.60;99.90
23237;DHT22;11787;52.018;8.570;2022-08-01T07:03:32;19.60;99.90
23237;DHT22;11787;52.018;8.570;2022-08-01T07:05:57;19.50;99.90
23237;DHT22;11787;52.018;8.570;2022-08-01T07:08:23;19.50;99.90
23237;DHT22;11787;52.018;8.570;2022-08-01T07:10:48;19.50;99.90
23237;DHT22;11787;52.018;8.570;2022-08-01T07:13:14;19.50;99.90
23237;DHT22;11787;52.018;8.570;2022-08-01T07:15:43;19.50;99.90
23237;DHT22;11787;52.018;8.570;2022-08-01T07:18:09;19.40;99.90
23237;DHT22;11787;52.018;8.570;2022-08-01T07:20:34;19.20;99.90
23237;DHT22;11787;52.018;8.570;2022-08-01T07:22:59;19.20;99.90
23237;DHT22;11787;52.018;8.570;2022-08-01T07:25:25;19.10;99.90
23237;DHT22;11787;52.018;8.570;2022-08-01T07:27:50;19.10;99.90
23237;DHT22;11787;52.018;8.570;2022-08-01T07:30:16;19.10;99.90
23237;DHT22;11787;52.018;8.570;2022-08-01T07:32:42;19.10;99.90
23237;DHT22;11787;52.018;8.570;2022-08-01T07:35:07;19.00;99.90
23237;DHT22;11787;52.018;8.570;2022-08-01T07:37:33;19.00;99.90
23237;DHT22;11787;52.018;8.570;2022-08-01T07:39:58;19.10;99.90
23237;DHT22;11787;52.018;8.570;2022-08-01T07:42:24;19.10;99.90
23237;DHT22;11787;52.018;8.570;2022-08-01T07:44:49;19.10;99.90
23237;DHT22;11787;52.018;8.570;2022-08-01T07:47:15;19.10;99.90
23237;DHT22;11787;52.018;8.570;2022-08-01T07:49:41;19.10;99.90
23237;DHT22;11787;52.018;8.570;2022-08-01T07:52:06;19.20;99.90
23237;DHT22;11787;52.018;8.570;2022-08-01T07:54:32;19.30;99.90
23237;DHT22;11787;52.018;8.570;2022-08-01T07:56:58;19.40;99.90
23237;DHT22;11787;52.018;8.570;2022-08-01T07:59:23;19.60;99.90
23237;DHT22;11787;52.018;8.570;2022-08-01T08:01:49;19.70;99.90
23237;DHT22;11787;52.018;8.570;2022-08-01T08:04:16;19.60;99.90
23237;DHT22;11787;52.018;8.570;2022-08-01T08:06:41;19.60;99.90
23237;DHT22;11787;52.018;8.570;2022-08-01T08:09:07;19.60;99.90
23237;DHT22;11787;52.018;8.570;2022-08-01T08:11:33;19.60;99.90
23237;DHT22;11787;52.018;8.570;2022-08-01T08:13:58;19.60;99.90
23237;DHT22;11787;52.018;8.570;2022-08-01T08:16:24;19.70;99.90
23237;DHT22;11787;52.018;8.570;2022-08-01T08:18:49;19.80;99.90
23237;DHT22;11787;52.018;8.570;2022-08-01T08:21:15;19.80;99.90
23237;DHT22;11787;52.018;8.570;2022-08-01T08:23:40;19.80;99.90
23237;DHT22;11787;52.018;8.570;2022-08-01T08:26:24;19.90;99.90
23237;DHT22;11787;52.018;8.570;2022-08-01T08:28:50;20.00;99.90
23237;DHT22;11787;52.018;8.570;2022-08-01T08:31:16;20.00;99.90
23237;DHT22;11787;52.018;8.570;2022-08-01T08:33:41;20.10;99.90
23237;DHT22;11787;52.018;8.570;2022-08-01T08:36:06;20.20;99.90
23237;DHT22;11787;52.018;8.570;2022-08-01T08:38:32;20.40;99.90
23237;DHT22;11787;52.018;8.570;2022-08-01T08:40:57;20.40;99.90
23237;DHT22;11787;52.018;8.570;2022-08-01T08:43:24;20.50;99.90
23237;DHT22;11787;52.018;8.570;2022-08-01T08:45:50;20.60;99.90
23237;DHT22;11787;52.018;8.570;2022-08-01T08:48:16;20.60;99.90
23237;DHT22;11787;52.018;8.570;2022-08-01T08:50:42;20.70;99.90
23237;DHT22;11787;52.018;8.570;2022-08-01T08:53:09;20.60;99.90
23237;DHT22;11787;52.018;8.570;2022-08-01T08:55:35;20.50;99.90
23237;DHT22;11787;52.018;8.570;2022-08-01T08:58:01;20.60;99.90
23237;DHT22;11787;52.018;8.570;2022-08-01T09:00:31;20.60;99.90
23237;DHT22;11787;52.018;8.570;2022-08-01T09:02:57;20.60;99.90
23237;DHT22;11787;52.018;8.570;2022-08-01T09:05:22;20.60;99.90
23237;DHT22;11787;52.018;8.570;2022-08-01T09:07:51;20.60;99.90
23237;DHT22;11787;52.018;8.570;2022-08-01T09:10:17;20.60;99.90
23237;DHT22;11787;52.018;8.570;2022-08-01T09:13:28;20.50;99.90
23237;DHT22;11787;52.018;8.570;2022-08-01T09:15:42;20.50;99.90
23237;DHT22;11787;52.018;8.570;2022-08-01T09:18:08;20.50;99.90
23237;DHT22;11787;52.018;8.570;2022-08-01T09:20:34;20.40;99.90
23237;DHT22;11787;52.018;8.570;2022-08-01T09:23:02;20.30;99.90
23237;DHT22;11787;52.018;8.570;2022-08-01T09:25:29;20.20;99.90
23237;DHT22;11787;52.018;8.570;2022-08-01T09:28:04;20.10;99.90
23237;DHT22;11787;52.018;8.570;2022-08-01T09:30:37;20.10;99.90
23237;DHT22;11787;52.018;8.570;2022-08-01T09:33:03;20.20;99.90
23237;DHT22;11787;52.018;8.570;2022-08-01T09:35:31;20.40;99.90
23237;DHT22;11787;52.018;8.570;2022-08-01T09:38:21;20.60;99.90
23237;DHT22;11787;52.018;8.570;2022-08-01T09:40:56;21.00;99.90
23237;DHT22;11787;52.018;8.570;2022-08-01T09:43:22;21.20;99.90
23237;DHT22;11787;52.018;8.570;2022-08-01T09:45:48;21.30;99.90
23237;DHT22;11787;52.018;8.570;2022-08-01T09:48:14;21.50;99.90
23237;DHT22;11787;52.018;8.570;2022-08-01T09:50:42;21.50;99.90
23237;DHT22;11787;52.018;8.570;2022-08-01T09:53:08;21.70;99.90
23237;DHT22;11787;52.018;8.570;2022-08-01T09:55:34;21.70;99.90
23237;DHT22;11787;52.018;8.570;2022-08-01T09:57:59;21.70;99.90
23237;DHT22;11787;52.018;8.570;2022-08-01T10:00:26;21.90;99.90
23237;DHT22;11787;52.018;8.570;2022-08-01T10:02:52;22.10;99.90
23237;DHT22;11787;52.018;8.570;2022-08-01T10:05:18;22.30;99.90
23237;DHT22;11787;52.018;8.570;2022-08-01T10:25:41;22.20;99.90
23237;DHT22;11787;52.018;8.570;2022-08-01T10:28:16;21.90;99.90
23237;DHT22;11787;52.018;8.570;2022-08-01T10:30:43;21.70;99.90
23237;DHT22;11787;52.018;8.570;2022-08-01T10:33:10;21.70;99.90
23237;DHT22;11787;52.018;8.570;2022-08-01T10:35:38;21.70;99.90
23237;DHT22;11787;52.018;8.570;2022-08-01T10:38:04;21.70;99.90
23237;DHT22;11787;52.018;8.570;2022-08-01T10:40:30;21.70;99.90
23237;DHT22;11787;52.018;8.570;2022-08-01T10:42:56;21.90;99.90
23237;DHT22;11787;52.018;8.570;2022-08-01T10:45:22;22.10;99.90
23237;DHT22;11787;52.018;8.570;2022-08-01T10:50:46;22.20;99.90
23237;DHT22;11787;52.018;8.570;2022-08-01T10:53:18;22.00;99.90
23237;DHT22;11787;52.018;8.570;2022-08-01T10:55:56;22.10;99.90
23237;DHT22;11787;52.018;8.570;2022-08-01T10:58:25;22.00;99.90
23237;DHT22;11787;52.018;8.570;2022-08-01T11:03:57;22.30;99.90
23237;DHT22;11787;52.018;8.570;2022-08-01T11:06:40;22.40;99.90
23237;DHT22;11787;52.018;8.570;2022-08-01T11:09:41;22.50;99.90
23237;DHT22;11787;52.018;8.570;2022-08-01T11:12:11;22.40;99.90
23237;DHT22;11787;52.018;8.570;2022-08-01T11:17:44;22.20;99.90
23237;DHT22;11787;52.018;8.570;2022-08-01T11:20:15;22.00;99.90
23237;DHT22;11787;52.018;8.570;2022-08-01T11:30:44;21.80;99.90
23237;DHT22;11787;52.018;8.570;2022-08-01T11:33:11;21.80;99.90
23237;DHT22;11787;52.018;8.570;2022-08-01T11:41:33;21.80;99.90
23237;DHT22;11787;52.018;8.570;2022-08-01T11:44:09;21.70;99.90
23237;DHT22;11787;52.018;8.570;2022-08-01T11:46:57;21.80;99.90
23237;DHT22;11787;52.018;8.570;2022-08-01T11:54:57;22.00;99.90
23237;DHT22;11787;52.018;8.570;2022-08-01T11:57:24;22.00;99.90
23237;DHT22;11787;52.018;8.570;2022-08-01T11:59:55;21.90;99.90
23237;DHT22;11787;52.018;8.570;2022-08-01T12:02:32;21.80;99.90
23237;DHT22;11787;52.018;8.570;2022-08-01T12:05:19;21.70;99.90
23237;DHT22;11787;52.018;8.570;2022-08-01T12:07:50;21.70;99.90
23237;DHT22;11787;52.018;8.570;2022-08-01T12:10:17;21.60;99.90
23237;DHT22;11787;52.018;8.570;2022-08-01T12:12:48;21.60;99.90
23237;DHT22;11787;52.018;8.570;2022-08-01T12:15:15;21.70;99.90
23237;DHT22;11787;52.018;8.570;2022-08-01T12:17:46;21.70;99.90
23237;DHT22;11787;52.018;8.570;2022-08-01T12:20:14;21.70;99.90
23237;DHT22;11787;52.018;8.570;2022-08-01T12:22:40;21.70;99.90
23237;DHT22;11787;52.018;8.570;2022-08-01T12:25:08;21.70;99.90
23237;DHT22;11787;52.018;8.570;2022-08-01T12:27:35;21.70;99.90
23237;DHT22;11787;52.018;8.570;2022-08-01T12:30:01;21.70;99.90
23237;DHT22;11787;52.018;8.570;2022-08-01T12:32:35;21.70;99.90
23237;DHT22;11787;52.018;8.570;2022-08-01T12:35:08;21.70;99.90
23237;DHT22;11787;52.018;8.570;2022-08-01T12:37:42;21.70;99.90
23237;DHT22;11787;52.018;8.570;2022-08-01T12:40:17;21.70;99.90
23237;DHT22;11787;52.018;8.570;2022-08-01T12:42:45;21.70;99.90
23237;DHT22;11787;52.018;8.570;2022-08-01T12:45:17;21.80;99.90
23237;DHT22;11787;52.018;8.570;2022-08-01T12:47:44;21.70;99.90
23237;DHT22;11787;52.018;8.570;2022-08-01T12:50:16;21.60;99.90
23237;DHT22;11787;52.018;8.570;2022-08-01T12:52:42;21.50;99.90
23237;DHT22;11787;52.018;8.570;2022-08-01T12:55:13;21.50;99.90
23237;DHT22;11787;52.018;8.570;2022-08-01T12:57:42;21.50;99.90
23237;DHT22;11787;52.018;8.570;2022-08-01T13:00:16;21.20;99.90
23237;DHT22;11787;52.018;8.570;2022-08-01T13:02:43;21.30;99.90
23237;DHT22;11787;52.018;8.570;2022-08-01T13:05:10;21.30;99.90
23237;DHT22;11787;52.018;8.570;2022-08-01T13:10:05;21.40;99.90
23237;DHT22;11787;52.018;8.570;2022-08-01T13:12:31;21.40;99.90
23237;DHT22;11787;52.018;8.570;2022-08-01T13:14:57;21.50;99.90
23237;DHT22;11787;52.018;8.570;2022-08-01T13:17:30;21.60;99.90
23237;DHT22;11787;52.018;8.570;2022-08-01T13:19:56;21.80;99.90
23237;DHT22;11787;52.018;8.570;2022-08-01T13:22:34;21.90;99.90
23237;DHT22;11787;52.018;8.570;2022-08-01T13:25:15;22.20;99.90
23237;DHT22;11787;52.018;8.570;2022-08-01T13:27:41;22.30;99.90
23237;DHT22;11787;52.018;8.570;2022-08-01T13:30:17;22.40;99.90
23237;DHT22;11787;52.018;8.570;2022-08-01T13:32:44;22.60;99.90
23237;DHT22;11787;52.018;8.570;2022-08-01T13:35:22;22.70;99.90
23237;DHT22;11787;52.018;8.570;2022-08-01T13:37:47;22.80;99.90
23237;DHT22;11787;52.018;8.570;2022-08-01T13:40:26;22.80;99.90
23237;DHT22;11787;52.018;8.570;2022-08-01T13:42:53;22.80;99.90
23237;DHT22;11787;52.018;8.570;2022-08-01T13:45:22;22.70;99.90
23237;DHT22;11787;52.018;8.570;2022-08-01T13:47:48;22.80;99.90
23237;DHT22;11787;52.018;8.570;2022-08-01T13:50:14;22.90;99.90
23237;DHT22;11787;52.018;8.570;2022-08-01T13:52:40;22.90;99.90
23237;DHT22;11787;52.018;8.570;2022-08-01T13:55:06;22.80;99.90
23237;DHT22;11787;52.018;8.570;2022-08-01T13:57:32;22.80;99.90
23237;DHT22;11787;52.018;8.570;2022-08-01T13:59:57;22.90;99.90
23237;DHT22;11787;52.018;8.570;2022-08-01T14:02:26;22.90;99.90
23237;DHT22;11787;52.018;8.570;2022-08-01T14:04:52;22.70;99.90
23237;DHT22;11787;52.018;8.570;2022-08-01T14:07:17;22.70;99.90
23237;DHT22;11787;52.018;8.570;2022-08-01T14:09:43;22.60;99.90
23237;DHT22;11787;52.018;8.570;2022-08-01T14:12:09;22.60;99.90
23237;DHT22;11787;52.018;8.570;2022-08-01T14:14:35;22.60;99.90
23237;DHT22;11787;52.018;8.570;2022-08-01T14:17:01;22.70;99.90
23237;DHT22;11787;52.018;8.570;2022-08-01T14:19:27;22.80;99.90
23237;DHT22;11787;52.018;8.570;2022-08-01T14:21:52;22.90;99.90
23237;DHT22;11787;52.018;8.570;2022-08-01T14:24:18;22.80;99.90
23237;DHT22;11787;52.018;8.570;2022-08-01T14:26:44;22.90;99.90
23237;DHT22;11787;52.018;8.570;2022-08-01T14:29:09;22.80;99.90
23237;DHT22;11787;52.018;8.570;2022-08-01T14:31:35;22.70;99.90
23237;DHT22;11787;52.018;8.570;2022-08-01T14:34:01;22.90;99.90
23237;DHT22;11787;52.018;8.570;2022-08-01T14:36:26;23.00;99.90
23237;DHT22;11787;52.018;8.570;2022-08-01T14:38:52;23.10;99.90
23237;DHT22;11787;52.018;8.570;2022-08-01T14:41:18;23.10;99.90
23237;DHT22;11787;52.018;8.570;2022-08-01T14:43:44;23.10;99.90
23237;DHT22;11787;52.018;8.570;2022-08-01T14:46:10;23.20;99.90
23237;DHT22;11787;52.018;8.570;2022-08-01T14:48:37;23.20;99.90
23237;DHT22;11787;52.018;8.570;2022-08-01T14:51:03;23.20;99.90
23237;DHT22;11787;52.018;8.570;2022-08-01T14:53:29;23.20;99.90
23237;DHT22;11787;52.018;8.570;2022-08-01T14:55:55;23.20;99.90
23237;DHT22;11787;52.018;8.570;2022-08-01T14:58:21;23.20;99.90
23237;DHT22;11787;52.018;8.570;2022-08-01T15:00:46;23.20;99.90
23237;DHT22;11787;52.018;8.570;2022-08-01T15:03:12;23.20;99.90
23237;DHT22;11787;52.018;8.570;2022-08-01T15:05:38;23.00;99.90
23237;DHT22;11787;52.018;8.570;2022-08-01T15:08:05;23.00;99.90
23237;DHT22;11787;52.018;8.570;2022-08-01T15:10:31;22.90;99.90
23237;DHT22;11787;52.018;8.570;2022-08-01T15:12:58;23.00;99.90
23237;DHT22;11787;52.018;8.570;2022-08-01T15:15:25;23.10;99.90
23237;DHT22;11787;52.018;8.570;2022-08-01T15:17:51;23.00;99.90
23237;DHT22;11787;52.018;8.570;2022-08-01T15:20:18;23.00;99.90
23237;DHT22;11787;52.018;8.570;2022-08-01T15:22:44;22.90;99.90
23237;DHT22;11787;52.018;8.570;2022-08-01T15:25:10;22.90;99.90
23237;DHT22;11787;52.018;8.570;2022-08-01T15:27:36;22.90;99.90
23237;DHT22;11787;52.018;8.570;2022-08-01T15:30:03;22.80;99.90
23237;DHT22;11787;52.018;8.570;2022-08-01T15:32:28;22.90;99.90
23237;DHT22;11787;52.018;8.570;2022-08-01T15:34:55;23.00;99.90
23237;DHT22;11787;52.018;8.570;2022-08-01T15:37:21;23.10;99.90
23237;DHT22;11787;52.018;8.570;2022-08-01T15:39:47;23.00;99.90
23237;DHT22;11787;52.018;8.570;2022-08-01T15:42:15;23.10;99.90
23237;DHT22;11787;52.018;8.570;2022-08-01T15:44:42;23.10;99.90
23237;DHT22;11787;52.018;8.570;2022-08-01T15:47:08;23.10;99.90
23237;DHT22;11787;52.018;8.570;2022-08-01T15:49:34;23.10;99.90
23237;DHT22;11787;52.018;8.570;2022-08-01T15:52:05;23.20;99.90
23237;DHT22;11787;52.018;8.570;2022-08-01T15:54:31;23.10;99.90
23237;DHT22;11787;52.018;8.570;2022-08-01T15:56:57;23.00;99.90
23237;DHT22;11787;52.018;8.570;2022-08-01T15:59:23;23.00;99.90
23237;DHT22;11787;52.018;8.570;2022-08-01T16:01:48;23.00;99.90
23237;DHT22;11787;52.018;8.570;2022-08-01T16:04:15;23.10;99.90
23237;DHT22;11787;52.018;8.570;2022-08-01T16:06:41;23.10;99.90
23237;DHT22;11787;52.018;8.570;2022-08-01T16:09:07;23.10;99.90
23237;DHT22;11787;52.018;8.570;2022-08-01T16:11:33;23.10;99.90
23237;DHT22;11787;52.018;8.570;2022-08-01T16:13:58;23.00;99.90
23237;DHT22;11787;52.018;8.570;2022-08-01T16:16:24;23.10;99.90
23237;DHT22;11787;52.018;8.570;2022-08-01T16:18:50;23.00;99.90
23237;DHT22;11787;52.018;8.570;2022-08-01T16:21:16;22.90;99.90
23237;DHT22;11787;52.018;8.570;2022-08-01T16:23:43;23.00;99.90
23237;DHT22;11787;52.018;8.570;2022-08-01T16:26:09;23.10;99.90
23237;DHT22;11787;52.018;8.570;2022-08-01T16:28:35;23.20;99.90
23237;DHT22;11787;52.018;8.570;2022-08-01T16:31:01;23.30;99.90
23237;DHT22;11787;52.018;8.570;2022-08-01T16:33:27;23.50;99.90
23237;DHT22;11787;52.018;8.570;2022-08-01T16:35:53;23.60;99.90
23237;DHT22;11787;52.018;8.570;2022-08-01T16:38:19;23.40;99.90